sensor_id;sensor_type;location;lat;lon;timestamp;temperature;humidity
69543;SHT31;56762;49.494;11.768;2022-07-29T00:02:25;19.96;45.25
69543;SHT31;56762;49.494;11.768;2022-07-29T00:04:53;19.91;45.36
69543;SHT31;56762;49.494;11.768;2022-07-29T00:07:21;19.93;45.33
69543;SHT31;56762;49.494;11.768;2022-07-29T00:09:49;19.92;45.35
69543;SHT31;56762;49.494;11.768;2022-07-29T00:12:18;19.89;45.45
69543;SHT31;56762;49.494;11.768;2022-07-29T00:14:54;19.95;45.28
69543;SHT31;56762;49.494;11.768;2022-07-29T00:17:23;19.86;45.61
69543;SHT31;56762;49.494;11.768;2022-07-29T00:19:51;19.82;45.64
69543;SHT31;56762;49.494;11.768;2022-07-29T00:22:19;19.81;45.59
69543;SHT31;56762;49.494;11.768;2022-07-29T00:24:49;19.89;45.45
69543;SHT31;56762;49.494;11.768;2022-07-29T00:27:17;19.92;45.33
69543;SHT31;56762;49.494;11.768;2022-07-29T00:29:46;19.88;45.45
69543;SHT31;56762;49.494;11.768;2022-07-29T00:32:15;19.88;45.44
69543;SHT31;56762;49.494;11.768;2022-07-29T00:34:43;19.86;45.58
69543;SHT31;56762;49.494;11.768;2022-07-29T00:37:28;19.81;46.01
69543;SHT31;56762;49.494;11.768;2022-07-29T00:39:56;19.89;45.46
69543;SHT31;56762;49.494;11.768;2022-07-29T00:42:24;19.86;45.59
69543;SHT31;56762;49.494;11.768;2022-07-29T00:44:52;19.82;45.66
69543;SHT31;56762;49.494;11.768;2022-07-29T00:47:21;19.79;46.20
69543;SHT31;56762;49.494;11.768;2022-07-29T00:49:49;19.77;46.00
69543;SHT31;56762;49.494;11.768;2022-07-29T00:52:17;19.75;45.83
69543;SHT31;56762;49.494;11.768;2022-07-29T00:54:45;19.75;46.04
69543;SHT31;56762;49.494;11.768;2022-07-29T00:57:13;19.77;46.20
69543;SHT31;56762;49.494;11.768;2022-07-29T00:59:41;19.72;46.40
69543;SHT31;56762;49.494;11.768;2022-07-29T01:02:09;19.71;46.42
69543;SHT31;56762;49.494;11.768;2022-07-29T01:04:39;19.68;46.46
69543;SHT31;56762;49.494;11.768;2022-07-29T01:07:07;19.67;46.40
69543;SHT31;56762;49.494;11.768;2022-07-29T01:09:36;19.74;45.85
69543;SHT31;56762;49.494;11.768;2022-07-29T01:12:15;19.74;46.08
69543;SHT31;56762;49.494;11.768;2022-07-29T01:14:44;19.71;46.07
69543;SHT31;56762;49.494;11.768;2022-07-29T01:17:17;19.71;46.07
69543;SHT31;56762;49.494;11.768;2022-07-29T01:19:53;19.69;46.34
69543;SHT31;56762;49.494;11.768;2022-07-29T01:22:28;19.65;46.57
69543;SHT31;56762;49.494;11.768;2022-07-29T01:25:17;19.75;45.67
69543;SHT31;56762;49.494;11.768;2022-07-29T01:28:17;19.69;46.77
69543;SHT31;56762;49.494;11.768;2022-07-29T01:30:52;19.65;47.47
69543;SHT31;56762;49.494;11.768;2022-07-29T01:33:25;19.62;46.92
69543;SHT31;56762;49.494;11.768;2022-07-29T01:36:14;19.62;46.76
69543;SHT31;56762;49.494;11.768;2022-07-29T01:38:47;19.75;46.43
69543;SHT31;56762;49.494;11.768;2022-07-29T01:41:19;19.72;46.26
69543;SHT31;56762;49.494;11.768;2022-07-29T01:43:51;19.65;46.53
69543;SHT31;56762;49.494;11.768;2022-07-29T01:46:24;19.65;46.62
69543;SHT31;56762;49.494;11.768;2022-07-29T01:48:56;19.67;46.65
69543;SHT31;56762;49.494;11.768;2022-07-29T01:51:29;19.79;45.46
69543;SHT31;56762;49.494;11.768;2022-07-29T01:54:02;19.82;45.22
69543;SHT31;56762;49.494;11.768;2022-07-29T01:56:32;19.75;45.97
69543;SHT31;56762;49.494;11.768;2022-07-29T01:59:01;19.67;46.71
69543;SHT31;56762;49.494;11.768;2022-07-29T02:01:33;19.65;46.53
69543;SHT31;56762;49.494;11.768;2022-07-29T02:04:03;19.61;46.51
69543;SHT31;56762;49.494;11.768;2022-07-29T02:06:34;19.68;46.53
69543;SHT31;56762;49.494;11.768;2022-07-29T02:09:06;19.65;46.50
69543;SHT31;56762;49.494;11.768;2022-07-29T02:11:35;19.54;47.23
69543;SHT31;56762;49.494;11.768;2022-07-29T02:14:03;19.53;47.09
69543;SHT31;56762;49.494;11.768;2022-07-29T02:16:35;19.50;47.33
69543;SHT31;56762;49.494;11.768;2022-07-29T02:19:04;19.48;47.23
69543;SHT31;56762;49.494;11.768;2022-07-29T02:21:35;19.54;46.73
69543;SHT31;56762;49.494;11.768;2022-07-29T02:24:04;19.46;47.01
69543;SHT31;56762;49.494;11.768;2022-07-29T02:26:33;19.46;47.16
69543;SHT31;56762;49.494;11.768;2022-07-29T02:29:01;19.48;46.87
69543;SHT31;56762;49.494;11.768;2022-07-29T02:31:34;19.46;47.93
69543;SHT31;56762;49.494;11.768;2022-07-29T02:34:06;19.41;49.46
69543;SHT31;56762;49.494;11.768;2022-07-29T02:36:36;19.38;50.18
69543;SHT31;56762;49.494;11.768;2022-07-29T02:39:06;19.37;50.33
69543;SHT31;56762;49.494;11.768;2022-07-29T02:41:40;19.30;49.94
69543;SHT31;56762;49.494;11.768;2022-07-29T02:44:10;19.31;49.60
69543;SHT31;56762;49.494;11.768;2022-07-29T02:46:46;19.26;50.35
69543;SHT31;56762;49.494;11.768;2022-07-29T02:49:18;19.19;51.12
69543;SHT31;56762;49.494;11.768;2022-07-29T02:51:54;19.17;51.85
69543;SHT31;56762;49.494;11.768;2022-07-29T02:54:27;19.14;52.09
69543;SHT31;56762;49.494;11.768;2022-07-29T02:56:59;19.14;52.08
69543;SHT31;56762;49.494;11.768;2022-07-29T02:59:30;19.31;50.70
69543;SHT31;56762;49.494;11.768;2022-07-29T03:02:04;19.21;50.80
69543;SHT31;56762;49.494;11.768;2022-07-29T03:04:34;19.09;51.66
69543;SHT31;56762;49.494;11.768;2022-07-29T03:07:03;19.06;52.01
69543;SHT31;56762;49.494;11.768;2022-07-29T03:09:32;19.04;52.25
69543;SHT31;56762;49.494;11.768;2022-07-29T03:12:02;19.00;52.87
69543;SHT31;56762;49.494;11.768;2022-07-29T03:14:31;19.06;52.14
69543;SHT31;56762;49.494;11.768;2022-07-29T03:17:00;19.04;52.15
69543;SHT31;56762;49.494;11.768;2022-07-29T03:19:31;19.00;52.74
69543;SHT31;56762;49.494;11.768;2022-07-29T03:21:59;18.96;52.79
69543;SHT31;56762;49.494;11.768;2022-07-29T03:24:29;18.93;52.69
69543;SHT31;56762;49.494;11.768;2022-07-29T03:26:57;18.90;52.42
69543;SHT31;56762;49.494;11.768;2022-07-29T03:29:26;18.90;52.27
69543;SHT31;56762;49.494;11.768;2022-07-29T03:32:00;18.88;52.48
69543;SHT31;56762;49.494;11.768;2022-07-29T03:34:34;18.88;52.60
69543;SHT31;56762;49.494;11.768;2022-07-29T03:37:03;18.88;53.28
69543;SHT31;56762;49.494;11.768;2022-07-29T03:39:36;18.85;53.76
69543;SHT31;56762;49.494;11.768;2022-07-29T03:42:07;18.82;54.18
69543;SHT31;56762;49.494;11.768;2022-07-29T03:44:37;18.85;53.82
69543;SHT31;56762;49.494;11.768;2022-07-29T03:47:06;18.83;54.02
69543;SHT31;56762;49.494;11.768;2022-07-29T03:49:40;18.83;54.22
69543;SHT31;56762;49.494;11.768;2022-07-29T03:52:08;18.82;54.08
69543;SHT31;56762;49.494;11.768;2022-07-29T03:54:36;18.83;54.17
69543;SHT31;56762;49.494;11.768;2022-07-29T03:57:05;18.77;54.33
69543;SHT31;56762;49.494;11.768;2022-07-29T03:59:35;18.79;54.34
69543;SHT31;56762;49.494;11.768;2022-07-29T04:02:05;18.79;54.35
69543;SHT31;56762;49.494;11.768;2022-07-29T04:04:34;18.77;54.24
69543;SHT31;56762;49.494;11.768;2022-07-29T04:07:04;18.77;54.18
69543;SHT31;56762;49.494;11.768;2022-07-29T04:09:32;18.75;53.73
69543;SHT31;56762;49.494;11.768;2022-07-29T04:12:00;18.75;53.44
69543;SHT31;56762;49.494;11.768;2022-07-29T04:14:30;18.72;53.53
69543;SHT31;56762;49.494;11.768;2022-07-29T04:16:59;18.70;53.62
69543;SHT31;56762;49.494;11.768;2022-07-29T04:19:28;18.66;53.09
69543;SHT31;56762;49.494;11.768;2022-07-29T04:21:57;18.68;52.85
69543;SHT31;56762;49.494;11.768;2022-07-29T04:24:27;18.69;52.41
69543;SHT31;56762;49.494;11.768;2022-07-29T04:26:56;18.66;52.44
69543;SHT31;56762;49.494;11.768;2022-07-29T04:29:24;18.66;52.38
69543;SHT31;56762;49.494;11.768;2022-07-29T04:31:52;18.69;52.32
69543;SHT31;56762;49.494;11.768;2022-07-29T04:34:20;18.73;52.05
69543;SHT31;56762;49.494;11.768;2022-07-29T04:36:53;18.92;51.47
69543;SHT31;56762;49.494;11.768;2022-07-29T04:39:22;18.90;51.55
69543;SHT31;56762;49.494;11.768;2022-07-29T04:41:55;18.82;52.04
69543;SHT31;56762;49.494;11.768;2022-07-29T04:44:24;18.83;52.19
69543;SHT31;56762;49.494;11.768;2022-07-29T04:46:55;18.86;52.50
69543;SHT31;56762;49.494;11.768;2022-07-29T04:49:25;18.77;53.25
69543;SHT31;56762;49.494;11.768;2022-07-29T04:51:54;18.75;53.05
69543;SHT31;56762;49.494;11.768;2022-07-29T04:54:22;18.76;52.67
69543;SHT31;56762;49.494;11.768;2022-07-29T04:56:51;18.75;53.16
69543;SHT31;56762;49.494;11.768;2022-07-29T04:59:21;18.77;53.39
69543;SHT31;56762;49.494;11.768;2022-07-29T05:01:49;18.77;53.11
69543;SHT31;56762;49.494;11.768;2022-07-29T05:04:17;18.83;53.08
69543;SHT31;56762;49.494;11.768;2022-07-29T05:06:46;18.85;52.22
69543;SHT31;56762;49.494;11.768;2022-07-29T05:09:14;18.83;52.94
69543;SHT31;56762;49.494;11.768;2022-07-29T05:11:42;18.89;52.98
69543;SHT31;56762;49.494;11.768;2022-07-29T05:14:10;18.86;52.55
69543;SHT31;56762;49.494;11.768;2022-07-29T05:16:40;18.99;52.46
69543;SHT31;56762;49.494;11.768;2022-07-29T05:19:10;18.96;52.97
69543;SHT31;56762;49.494;11.768;2022-07-29T05:21:40;18.99;53.11
69543;SHT31;56762;49.494;11.768;2022-07-29T05:24:08;18.96;53.88
69543;SHT31;56762;49.494;11.768;2022-07-29T05:26:36;18.93;53.45
69543;SHT31;56762;49.494;11.768;2022-07-29T05:29:05;18.93;53.41
69543;SHT31;56762;49.494;11.768;2022-07-29T05:31:54;18.95;53.43
69543;SHT31;56762;49.494;11.768;2022-07-29T05:34:22;18.96;54.36
69543;SHT31;56762;49.494;11.768;2022-07-29T05:36:52;18.98;53.43
69543;SHT31;56762;49.494;11.768;2022-07-29T05:39:20;18.99;53.42
69543;SHT31;56762;49.494;11.768;2022-07-29T05:42:08;19.02;52.83
69543;SHT31;56762;49.494;11.768;2022-07-29T05:44:39;19.04;53.08
69543;SHT31;56762;49.494;11.768;2022-07-29T05:47:08;19.04;53.52
69543;SHT31;56762;49.494;11.768;2022-07-29T05:49:36;19.09;53.00
69543;SHT31;56762;49.494;11.768;2022-07-29T05:52:05;19.13;52.65
69543;SHT31;56762;49.494;11.768;2022-07-29T05:54:34;19.13;52.79
69543;SHT31;56762;49.494;11.768;2022-07-29T05:57:02;19.17;52.97
69543;SHT31;56762;49.494;11.768;2022-07-29T05:59:31;19.17;52.61
69543;SHT31;56762;49.494;11.768;2022-07-29T06:01:59;19.16;52.87
69543;SHT31;56762;49.494;11.768;2022-07-29T06:04:28;19.21;52.31
69543;SHT31;56762;49.494;11.768;2022-07-29T06:06:56;19.19;52.58
69543;SHT31;56762;49.494;11.768;2022-07-29T06:09:24;19.20;52.62
69543;SHT31;56762;49.494;11.768;2022-07-29T06:11:52;19.21;52.51
69543;SHT31;56762;49.494;11.768;2022-07-29T06:14:20;19.20;52.51
69543;SHT31;56762;49.494;11.768;2022-07-29T06:16:49;19.30;51.60
69543;SHT31;56762;49.494;11.768;2022-07-29T06:19:17;19.28;51.86
69543;SHT31;56762;49.494;11.768;2022-07-29T06:21:47;19.31;51.76
69543;SHT31;56762;49.494;11.768;2022-07-29T06:24:15;19.30;51.96
69543;SHT31;56762;49.494;11.768;2022-07-29T06:26:45;19.27;52.85
69543;SHT31;56762;49.494;11.768;2022-07-29T06:29:13;19.26;53.21
69543;SHT31;56762;49.494;11.768;2022-07-29T06:31:41;19.26;53.50
69543;SHT31;56762;49.494;11.768;2022-07-29T06:34:09;19.27;53.21
69543;SHT31;56762;49.494;11.768;2022-07-29T06:36:38;19.26;53.06
69543;SHT31;56762;49.494;11.768;2022-07-29T06:39:08;19.24;52.98
69543;SHT31;56762;49.494;11.768;2022-07-29T06:41:39;19.28;52.64
69543;SHT31;56762;49.494;11.768;2022-07-29T06:44:07;19.31;52.63
69543;SHT31;56762;49.494;11.768;2022-07-29T06:46:35;19.32;53.84
69543;SHT31;56762;49.494;11.768;2022-07-29T06:49:03;19.38;52.73
69543;SHT31;56762;49.494;11.768;2022-07-29T06:51:31;19.50;52.00
69543;SHT31;56762;49.494;11.768;2022-07-29T06:53:59;19.53;52.18
69543;SHT31;56762;49.494;11.768;2022-07-29T06:56:30;19.55;52.87
69543;SHT31;56762;49.494;11.768;2022-07-29T06:59:05;19.57;52.90
69543;SHT31;56762;49.494;11.768;2022-07-29T07:01:34;19.64;52.37
69543;SHT31;56762;49.494;11.768;2022-07-29T07:04:02;19.69;52.20
69543;SHT31;56762;49.494;11.768;2022-07-29T07:06:31;19.69;53.51
69543;SHT31;56762;49.494;11.768;2022-07-29T07:08:59;19.72;55.03
69543;SHT31;56762;49.494;11.768;2022-07-29T07:11:27;19.77;55.46
69543;SHT31;56762;49.494;11.768;2022-07-29T07:13:58;19.81;54.61
69543;SHT31;56762;49.494;11.768;2022-07-29T07:16:30;19.82;53.74
69543;SHT31;56762;49.494;11.768;2022-07-29T07:18:59;19.93;52.67
69543;SHT31;56762;49.494;11.768;2022-07-29T07:21:27;19.98;53.73
69543;SHT31;56762;49.494;11.768;2022-07-29T07:23:56;20.00;53.32
69543;SHT31;56762;49.494;11.768;2022-07-29T07:26:24;20.06;54.34
69543;SHT31;56762;49.494;11.768;2022-07-29T07:28:56;20.10;54.22
69543;SHT31;56762;49.494;11.768;2022-07-29T07:31:25;20.16;54.14
69543;SHT31;56762;49.494;11.768;2022-07-29T07:33:54;20.25;54.27
69543;SHT31;56762;49.494;11.768;2022-07-29T07:36:22;20.26;53.92
69543;SHT31;56762;49.494;11.768;2022-07-29T07:38:50;20.40;53.46
69543;SHT31;56762;49.494;11.768;2022-07-29T07:41:19;20.54;53.20
69543;SHT31;56762;49.494;11.768;2022-07-29T07:43:48;20.69;52.96
69543;SHT31;56762;49.494;11.768;2022-07-29T07:46:16;20.80;52.26
69543;SHT31;56762;49.494;11.768;2022-07-29T07:48:45;20.88;52.42
69543;SHT31;56762;49.494;11.768;2022-07-29T07:51:14;21.00;51.98
69543;SHT31;56762;49.494;11.768;2022-07-29T07:53:41;21.08;51.60
69543;SHT31;56762;49.494;11.768;2022-07-29T07:56:11;21.17;51.78
69543;SHT31;56762;49.494;11.768;2022-07-29T07:58:39;21.18;50.77
69543;SHT31;56762;49.494;11.768;2022-07-29T08:01:08;21.22;51.16
69543;SHT31;56762;49.494;11.768;2022-07-29T08:03:36;21.27;51.61
69543;SHT31;56762;49.494;11.768;2022-07-29T08:06:07;21.35;51.71
69543;SHT31;56762;49.494;11.768;2022-07-29T08:08:35;21.43;52.02
69543;SHT31;56762;49.494;11.768;2022-07-29T08:11:03;21.53;51.96
69543;SHT31;56762;49.494;11.768;2022-07-29T08:13:36;21.63;52.25
69543;SHT31;56762;49.494;11.768;2022-07-29T08:16:05;21.72;51.80
69543;SHT31;56762;49.494;11.768;2022-07-29T08:18:42;21.73;52.02
69543;SHT31;56762;49.494;11.768;2022-07-29T08:21:13;21.75;51.93
69543;SHT31;56762;49.494;11.768;2022-07-29T08:23:45;21.79;52.42
69543;SHT31;56762;49.494;11.768;2022-07-29T08:26:27;21.83;52.31
69543;SHT31;56762;49.494;11.768;2022-07-29T08:28:55;21.90;52.30
69543;SHT31;56762;49.494;11.768;2022-07-29T08:31:23;22.04;52.14
69543;SHT31;56762;49.494;11.768;2022-07-29T08:33:52;22.21;52.14
69543;SHT31;56762;49.494;11.768;2022-07-29T08:36:21;22.37;51.76
69543;SHT31;56762;49.494;11.768;2022-07-29T08:38:49;22.50;51.07
69543;SHT31;56762;49.494;11.768;2022-07-29T08:41:18;22.52;50.67
69543;SHT31;56762;49.494;11.768;2022-07-29T08:43:46;22.48;51.02
69543;SHT31;56762;49.494;11.768;2022-07-29T08:46:14;22.58;51.15
69543;SHT31;56762;49.494;11.768;2022-07-29T08:48:43;22.55;50.63
69543;SHT31;56762;49.494;11.768;2022-07-29T08:51:13;22.54;50.92
69543;SHT31;56762;49.494;11.768;2022-07-29T08:53:45;22.55;51.28
69543;SHT31;56762;49.494;11.768;2022-07-29T08:56:14;22.52;51.68
69543;SHT31;56762;49.494;11.768;2022-07-29T08:58:44;22.52;51.95
69543;SHT31;56762;49.494;11.768;2022-07-29T09:01:22;22.55;52.43
69543;SHT31;56762;49.494;11.768;2022-07-29T09:04:11;22.59;52.41
69543;SHT31;56762;49.494;11.768;2022-07-29T09:06:45;22.73;52.16
69543;SHT31;56762;49.494;11.768;2022-07-29T09:09:15;22.76;51.92
69543;SHT31;56762;49.494;11.768;2022-07-29T09:11:43;22.82;51.97
69543;SHT31;56762;49.494;11.768;2022-07-29T09:14:12;22.84;51.37
69543;SHT31;56762;49.494;11.768;2022-07-29T09:16:45;22.95;51.53
69543;SHT31;56762;49.494;11.768;2022-07-29T09:19:20;23.02;51.12
69543;SHT31;56762;49.494;11.768;2022-07-29T09:21:48;22.96;51.61
69543;SHT31;56762;49.494;11.768;2022-07-29T09:24:40;22.92;51.73
69543;SHT31;56762;49.494;11.768;2022-07-29T09:27:26;22.89;51.25
69543;SHT31;56762;49.494;11.768;2022-07-29T09:29:56;22.87;51.94
69543;SHT31;56762;49.494;11.768;2022-07-29T09:32:25;22.85;52.55
69543;SHT31;56762;49.494;11.768;2022-07-29T09:35:14;22.87;53.38
69543;SHT31;56762;49.494;11.768;2022-07-29T09:37:43;22.94;53.57
69543;SHT31;56762;49.494;11.768;2022-07-29T09:40:14;23.08;52.42
69543;SHT31;56762;49.494;11.768;2022-07-29T09:42:43;22.98;53.78
69543;SHT31;56762;49.494;11.768;2022-07-29T09:45:12;23.06;52.97
69543;SHT31;56762;49.494;11.768;2022-07-29T09:47:42;23.08;53.46
69543;SHT31;56762;49.494;11.768;2022-07-29T09:50:11;23.05;53.75
69543;SHT31;56762;49.494;11.768;2022-07-29T09:52:47;23.15;53.34
69543;SHT31;56762;49.494;11.768;2022-07-29T09:55:17;23.12;54.04
69543;SHT31;56762;49.494;11.768;2022-07-29T09:57:46;23.16;53.77
69543;SHT31;56762;49.494;11.768;2022-07-29T10:00:16;23.20;53.59
69543;SHT31;56762;49.494;11.768;2022-07-29T10:02:45;23.23;54.64
69543;SHT31;56762;49.494;11.768;2022-07-29T10:05:19;23.18;55.37
69543;SHT31;56762;49.494;11.768;2022-07-29T10:07:49;23.18;55.16
69543;SHT31;56762;49.494;11.768;2022-07-29T10:10:23;23.16;55.70
69543;SHT31;56762;49.494;11.768;2022-07-29T10:12:53;23.22;56.04
69543;SHT31;56762;49.494;11.768;2022-07-29T10:15:22;23.18;55.66
69543;SHT31;56762;49.494;11.768;2022-07-29T10:17:51;23.23;55.30
69543;SHT31;56762;49.494;11.768;2022-07-29T10:20:20;23.22;55.33
69543;SHT31;56762;49.494;11.768;2022-07-29T10:22:49;23.20;55.54
69543;SHT31;56762;49.494;11.768;2022-07-29T10:25:21;23.24;55.18
69543;SHT31;56762;49.494;11.768;2022-07-29T10:27:50;23.34;54.96
69543;SHT31;56762;49.494;11.768;2022-07-29T10:30:22;23.46;54.00
69543;SHT31;56762;49.494;11.768;2022-07-29T10:33:10;23.73;52.70
69543;SHT31;56762;49.494;11.768;2022-07-29T10:36:04;23.84;52.50
69543;SHT31;56762;49.494;11.768;2022-07-29T10:38:43;23.90;51.90
69543;SHT31;56762;49.494;11.768;2022-07-29T10:44:19;24.08;50.74
69543;SHT31;56762;49.494;11.768;2022-07-29T10:46:50;24.12;51.00
69543;SHT31;56762;49.494;11.768;2022-07-29T10:49:21;24.12;51.83
69543;SHT31;56762;49.494;11.768;2022-07-29T10:52:02;24.21;50.73
69543;SHT31;56762;49.494;11.768;2022-07-29T10:54:52;24.26;50.70
69543;SHT31;56762;49.494;11.768;2022-07-29T10:57:27;24.25;50.79
69543;SHT31;56762;49.494;11.768;2022-07-29T11:00:30;24.28;50.41
69543;SHT31;56762;49.494;11.768;2022-07-29T11:02:58;24.33;50.14
69543;SHT31;56762;49.494;11.768;2022-07-29T11:05:52;24.32;50.49
69543;SHT31;56762;49.494;11.768;2022-07-29T11:08:23;24.36;50.07
69543;SHT31;56762;49.494;11.768;2022-07-29T11:11:30;24.43;49.91
69543;SHT31;56762;49.494;11.768;2022-07-29T11:14:01;24.45;49.66
69543;SHT31;56762;49.494;11.768;2022-07-29T11:16:58;24.47;49.94
69543;SHT31;56762;49.494;11.768;2022-07-29T11:19:27;24.51;49.92
69543;SHT31;56762;49.494;11.768;2022-07-29T11:21:56;24.56;49.90
69543;SHT31;56762;49.494;11.768;2022-07-29T11:24:25;24.56;49.62
69543;SHT31;56762;49.494;11.768;2022-07-29T11:27:06;24.53;50.07
69543;SHT31;56762;49.494;11.768;2022-07-29T11:29:39;24.56;50.34
69543;SHT31;56762;49.494;11.768;2022-07-29T11:32:10;24.63;50.61
69543;SHT31;56762;49.494;11.768;2022-07-29T11:34:49;24.66;49.43
69543;SHT31;56762;49.494;11.768;2022-07-29T11:37:44;24.66;49.11
69543;SHT31;56762;49.494;11.768;2022-07-29T11:40:23;24.70;47.59
69543;SHT31;56762;49.494;11.768;2022-07-29T11:42:51;24.69;48.55
69543;SHT31;56762;49.494;11.768;2022-07-29T11:45:23;24.73;48.42
69543;SHT31;56762;49.494;11.768;2022-07-29T11:48:15;24.66;48.99
69543;SHT31;56762;49.494;11.768;2022-07-29T11:50:56;24.72;47.32
69543;SHT31;56762;49.494;11.768;2022-07-29T11:53:24;24.80;46.22
69543;SHT31;56762;49.494;11.768;2022-07-29T11:55:58;24.77;47.26
69543;SHT31;56762;49.494;11.768;2022-07-29T11:58:28;24.82;46.32
69543;SHT31;56762;49.494;11.768;2022-07-29T12:00:59;24.77;47.49
69543;SHT31;56762;49.494;11.768;2022-07-29T12:03:30;24.80;46.97
69543;SHT31;56762;49.494;11.768;2022-07-29T12:06:18;24.80;46.76
69543;SHT31;56762;49.494;11.768;2022-07-29T12:08:47;24.79;47.69
69543;SHT31;56762;49.494;11.768;2022-07-29T12:11:15;24.94;46.62
69543;SHT31;56762;49.494;11.768;2022-07-29T12:13:46;25.00;45.93
69543;SHT31;56762;49.494;11.768;2022-07-29T12:16:17;24.99;47.11
69543;SHT31;56762;49.494;11.768;2022-07-29T12:18:56;24.99;47.74
69543;SHT31;56762;49.494;11.768;2022-07-29T12:21:24;25.13;47.72
69543;SHT31;56762;49.494;11.768;2022-07-29T12:23:54;25.23;47.60
69543;SHT31;56762;49.494;11.768;2022-07-29T12:26:31;25.30;47.08
69543;SHT31;56762;49.494;11.768;2022-07-29T12:29:02;25.33;47.56
69543;SHT31;56762;49.494;11.768;2022-07-29T12:31:42;25.38;47.77
69543;SHT31;56762;49.494;11.768;2022-07-29T12:34:12;25.52;47.86
69543;SHT31;56762;49.494;11.768;2022-07-29T12:36:41;25.57;47.34
69543;SHT31;56762;49.494;11.768;2022-07-29T12:39:10;25.62;47.21
69543;SHT31;56762;49.494;11.768;2022-07-29T12:41:39;25.67;47.08
69543;SHT31;56762;49.494;11.768;2022-07-29T12:44:07;25.72;46.87
69543;SHT31;56762;49.494;11.768;2022-07-29T12:46:35;25.77;45.83
69543;SHT31;56762;49.494;11.768;2022-07-29T12:49:06;25.85;45.67
69543;SHT31;56762;49.494;11.768;2022-07-29T12:51:37;25.78;45.81
69543;SHT31;56762;49.494;11.768;2022-07-29T12:54:07;25.79;46.33
69543;SHT31;56762;49.494;11.768;2022-07-29T12:56:37;25.75;46.81
69543;SHT31;56762;49.494;11.768;2022-07-29T12:59:15;25.82;45.91
69543;SHT31;56762;49.494;11.768;2022-07-29T13:01:43;25.85;45.66
69543;SHT31;56762;49.494;11.768;2022-07-29T13:04:26;25.78;46.09
69543;SHT31;56762;49.494;11.768;2022-07-29T13:07:04;25.71;45.82
69543;SHT31;56762;49.494;11.768;2022-07-29T13:09:37;25.65;46.12
69543;SHT31;56762;49.494;11.768;2022-07-29T13:12:07;25.57;45.93
69543;SHT31;56762;49.494;11.768;2022-07-29T13:14:37;25.47;46.15
69543;SHT31;56762;49.494;11.768;2022-07-29T13:17:07;25.38;45.90
69543;SHT31;56762;49.494;11.768;2022-07-29T13:19:38;25.33;45.51
69543;SHT31;56762;49.494;11.768;2022-07-29T13:22:07;25.17;46.31
69543;SHT31;56762;49.494;11.768;2022-07-29T13:24:45;25.07;47.35
69543;SHT31;56762;49.494;11.768;2022-07-29T13:27:14;24.99;47.52
69543;SHT31;56762;49.494;11.768;2022-07-29T13:29:41;24.94;47.57
69543;SHT31;56762;49.494;11.768;2022-07-29T13:32:11;24.90;47.58
69543;SHT31;56762;49.494;11.768;2022-07-29T13:34:41;24.83;52.09
69543;SHT31;56762;49.494;11.768;2022-07-29T13:37:08;24.83;55.55
69543;SHT31;56762;49.494;11.768;2022-07-29T13:39:37;24.89;57.47
69543;SHT31;56762;49.494;11.768;2022-07-29T13:42:06;24.56;58.03
69543;SHT31;56762;49.494;11.768;2022-07-29T13:44:36;24.33;58.58
69543;SHT31;56762;49.494;11.768;2022-07-29T13:47:04;24.00;60.25
69543;SHT31;56762;49.494;11.768;2022-07-29T13:49:32;23.61;62.44
69543;SHT31;56762;49.494;11.768;2022-07-29T13:52:01;23.34;64.47
69543;SHT31;56762;49.494;11.768;2022-07-29T13:54:29;23.00;66.84
69543;SHT31;56762;49.494;11.768;2022-07-29T13:56:57;22.65;69.44
69543;SHT31;56762;49.494;11.768;2022-07-29T13:59:25;22.41;70.63
69543;SHT31;56762;49.494;11.768;2022-07-29T14:01:53;22.09;72.98
69543;SHT31;56762;49.494;11.768;2022-07-29T14:04:21;21.83;73.49
69543;SHT31;56762;49.494;11.768;2022-07-29T14:06:49;21.66;74.55
69543;SHT31;56762;49.494;11.768;2022-07-29T14:09:19;21.46;75.53
69543;SHT31;56762;49.494;11.768;2022-07-29T14:11:47;21.37;77.00
69543;SHT31;56762;49.494;11.768;2022-07-29T14:14:16;21.24;77.87
69543;SHT31;56762;49.494;11.768;2022-07-29T14:16:45;21.21;77.38
69543;SHT31;56762;49.494;11.768;2022-07-29T14:19:17;21.14;77.47
69543;SHT31;56762;49.494;11.768;2022-07-29T14:21:45;21.14;78.78
69543;SHT31;56762;49.494;11.768;2022-07-29T14:24:15;20.92;80.12
69543;SHT31;56762;49.494;11.768;2022-07-29T14:26:50;20.83;81.01
69543;SHT31;56762;49.494;11.768;2022-07-29T14:29:19;20.70;80.50
69543;SHT31;56762;49.494;11.768;2022-07-29T14:31:47;20.70;80.61
69543;SHT31;56762;49.494;11.768;2022-07-29T14:34:15;20.69;79.90
69543;SHT31;56762;49.494;11.768;2022-07-29T14:36:43;20.67;80.57
69543;SHT31;56762;49.494;11.768;2022-07-29T14:39:11;20.70;81.09
69543;SHT31;56762;49.494;11.768;2022-07-29T14:41:39;20.71;82.75
69543;SHT31;56762;49.494;11.768;2022-07-29T14:44:08;20.74;83.19
69543;SHT31;56762;49.494;11.768;2022-07-29T14:46:36;20.76;83.36
69543;SHT31;56762;49.494;11.768;2022-07-29T14:49:04;20.73;84.32
69543;SHT31;56762;49.494;11.768;2022-07-29T14:51:35;20.76;84.25
69543;SHT31;56762;49.494;11.768;2022-07-29T14:54:05;20.77;83.90
69543;SHT31;56762;49.494;11.768;2022-07-29T14:56:33;20.81;83.74
69543;SHT31;56762;49.494;11.768;2022-07-29T14:59:03;20.88;82.66
69543;SHT31;56762;49.494;11.768;2022-07-29T15:01:33;20.94;82.31
69543;SHT31;56762;49.494;11.768;2022-07-29T15:04:01;21.07;82.73
69543;SHT31;56762;49.494;11.768;2022-07-29T15:06:29;21.02;82.16
69543;SHT31;56762;49.494;11.768;2022-07-29T15:08:57;20.97;80.41
69543;SHT31;56762;49.494;11.768;2022-07-29T15:11:25;20.92;80.88
69543;SHT31;56762;49.494;11.768;2022-07-29T15:13:54;20.88;80.96
69543;SHT31;56762;49.494;11.768;2022-07-29T15:16:21;20.87;80.67
69543;SHT31;56762;49.494;11.768;2022-07-29T15:18:51;20.70;80.86
69543;SHT31;56762;49.494;11.768;2022-07-29T15:21:19;20.64;79.57
69543;SHT31;56762;49.494;11.768;2022-07-29T15:23:47;20.47;81.17
69543;SHT31;56762;49.494;11.768;2022-07-29T15:26:16;20.44;81.43
69543;SHT31;56762;49.494;11.768;2022-07-29T15:28:44;20.36;82.17
69543;SHT31;56762;49.494;11.768;2022-07-29T15:31:12;20.41;81.77
69543;SHT31;56762;49.494;11.768;2022-07-29T15:33:40;20.36;82.38
69543;SHT31;56762;49.494;11.768;2022-07-29T15:36:12;20.43;81.70
69543;SHT31;56762;49.494;11.768;2022-07-29T15:39:00;20.53;81.05
69543;SHT31;56762;49.494;11.768;2022-07-29T15:41:28;20.49;81.25
69543;SHT31;56762;49.494;11.768;2022-07-29T15:43:56;20.46;80.37